createdAt,value
2018-05-16T00:00:03.763Z,99.90
2018-05-16T00:02:33.559Z,99.90
2018-05-16T00:05:03.378Z,99.90
2018-05-16T00:07:33.166Z,99.90
2018-05-16T00:10:03.161Z,99.90
2018-05-16T00:12:33.730Z,99.90
2018-05-16T00:15:03.568Z,99.90
2018-05-16T00:17:33.376Z,99.90
2018-05-16T00:20:03.200Z,99.90
2018-05-16T00:22:32.977Z,99.90
2018-05-16T00:25:02.742Z,99.90
2018-05-16T00:27:32.518Z,99.90
2018-05-16T00:30:02.310Z,99.90
2018-05-16T00:32:32.132Z,99.90
2018-05-16T00:35:01.905Z,99.90
2018-05-16T00:37:31.686Z,99.90
2018-05-16T00:40:01.454Z,99.90
2018-05-16T00:42:31.263Z,99.90
2018-05-16T00:45:01.800Z,99.90
2018-05-16T00:47:32.432Z,99.90
2018-05-16T00:50:03.002Z,99.90
2018-05-16T00:52:32.763Z,99.90
2018-05-16T00:55:03.356Z,99.90
2018-05-16T00:57:33.145Z,99.90
2018-05-16T01:00:02.941Z,99.90
2018-05-16T01:02:32.435Z,99.90
2018-05-16T01:05:02.245Z,99.90
2018-05-16T01:07:32.802Z,99.90
2018-05-16T01:10:02.625Z,99.90
2018-05-16T01:12:32.413Z,99.90
2018-05-16T01:15:02.953Z,99.90
2018-05-16T01:17:32.736Z,99.90
2018-05-16T01:20:02.257Z,99.90
2018-05-16T01:22:32.039Z,99.90
2018-05-16T01:25:01.819Z,99.90
2018-05-16T01:27:31.570Z,99.90
2018-05-16T01:30:01.370Z,99.90
2018-05-16T01:32:31.668Z,99.90
2018-05-16T01:35:01.438Z,99.90
2018-05-16T01:37:32.027Z,99.90
2018-05-16T01:40:01.928Z,99.90
2018-05-16T01:42:31.815Z,99.90
2018-05-16T01:45:01.602Z,99.90
2018-05-16T01:47:32.197Z,99.90
2018-05-16T01:50:01.975Z,99.90
2018-05-16T01:52:31.743Z,99.90
2018-05-16T01:55:01.564Z,99.90
2018-05-16T01:57:32.118Z,99.90
2018-05-16T02:00:02.656Z,99.90
2018-05-16T02:02:32.431Z,99.90
2018-05-16T02:05:01.946Z,99.90
2018-05-16T02:07:31.481Z,99.90
2018-05-16T02:10:01.274Z,99.90
2018-05-16T02:12:31.811Z,99.90
2018-05-16T02:15:02.358Z,99.90
2018-05-16T02:17:32.138Z,99.90
2018-05-16T02:20:02.655Z,99.90
2018-05-16T02:22:32.463Z,99.90
2018-05-16T02:25:02.229Z,99.90
2018-05-16T02:27:31.762Z,99.90
2018-05-16T02:30:01.527Z,99.90
2018-05-16T02:32:32.072Z,99.90
2018-05-16T02:35:01.862Z,99.90
2018-05-16T02:37:31.899Z,99.90
2018-05-16T02:40:02.626Z,99.90
2018-05-16T02:42:33.194Z,99.90
2018-05-16T02:45:02.977Z,99.90
2018-05-16T02:47:33.534Z,99.90
2018-05-16T02:50:03.309Z,99.90
2018-05-16T02:52:33.878Z,99.90
2018-05-16T02:55:03.337Z,99.90
2018-05-16T02:57:33.913Z,99.90
2018-05-16T03:00:03.366Z,99.90
2018-05-16T03:02:33.148Z,99.90
2018-05-16T03:05:02.944Z,99.90
2018-05-16T03:07:32.701Z,99.90
2018-05-16T03:10:03.286Z,99.90
2018-05-16T03:12:33.056Z,99.90
2018-05-16T03:15:03.653Z,99.90
2018-05-16T03:17:33.541Z,99.90
2018-05-16T03:20:03.369Z,99.90
2018-05-16T03:22:33.654Z,99.90
2018-05-16T03:25:03.520Z,99.90
2018-05-16T03:27:33.315Z,99.90
2018-05-16T03:30:03.149Z,99.90
2018-05-16T03:32:32.901Z,99.90
2018-05-16T03:35:02.667Z,99.90
2018-05-16T03:37:32.965Z,99.90
2018-05-16T03:40:02.771Z,99.90
2018-05-16T03:42:32.596Z,99.90
2018-05-16T03:45:02.373Z,99.90
2018-05-16T03:47:32.200Z,99.90
2018-05-16T03:50:01.986Z,99.90
2018-05-16T03:52:32.626Z,99.90
2018-05-16T03:55:02.462Z,99.90
2018-05-16T03:57:43.427Z,99.90
2018-05-16T04:00:24.080Z,99.90
2018-05-16T04:03:04.735Z,99.90
2018-05-16T04:05:34.232Z,99.90
2018-05-16T04:08:03.735Z,99.90
2018-05-16T04:10:33.520Z,99.90
2018-05-16T04:13:03.298Z,99.90
2018-05-16T04:15:33.116Z,99.90
2018-05-16T04:18:02.917Z,99.90
2018-05-16T04:20:32.449Z,99.90
2018-05-16T04:23:02.261Z,99.90
2018-05-16T04:25:32.067Z,99.90
2018-05-16T04:28:01.818Z,99.90
2018-05-16T04:30:31.620Z,99.90
2018-05-16T04:33:01.403Z,99.90
2018-05-16T04:35:31.317Z,99.90
2018-05-16T04:38:01.355Z,99.90
2018-05-16T04:40:31.251Z,99.90
2018-05-16T04:43:01.121Z,99.90
2018-05-16T04:45:30.904Z,99.90
2018-05-16T04:48:00.670Z,99.90
2018-05-16T04:50:30.476Z,99.90
2018-05-16T04:53:01.044Z,99.90
2018-05-16T04:55:30.789Z,99.90
2018-05-16T04:58:00.624Z,99.90
2018-05-16T05:00:31.182Z,99.90
2018-05-16T05:03:00.977Z,99.90
2018-05-16T05:05:31.483Z,99.90
2018-05-16T05:08:02.053Z,99.90
2018-05-16T05:10:32.071Z,99.90
2018-05-16T05:13:01.901Z,99.90
2018-05-16T05:15:31.746Z,99.90
2018-05-16T05:18:01.699Z,99.90
2018-05-16T05:20:31.573Z,99.90
2018-05-16T05:23:01.326Z,99.90
2018-05-16T05:25:31.143Z,99.90
2018-05-16T05:28:01.687Z,99.90
2018-05-16T05:30:31.498Z,99.90
2018-05-16T05:33:01.327Z,99.90
2018-05-16T05:35:31.094Z,99.90
2018-05-16T05:38:01.685Z,99.90
2018-05-16T05:40:31.513Z,99.90
2018-05-16T05:43:01.424Z,99.90
2018-05-16T05:45:31.206Z,99.90
2018-05-16T05:48:01.016Z,99.90
2018-05-16T05:50:30.821Z,99.90
2018-05-16T05:53:00.651Z,99.90
2018-05-16T05:55:30.440Z,99.90
2018-05-16T05:58:00.246Z,99.90
2018-05-16T06:00:30.778Z,99.90
2018-05-16T06:03:00.701Z,99.90
2018-05-16T06:05:30.635Z,99.90
2018-05-16T06:08:00.623Z,99.90
2018-05-16T06:10:30.376Z,99.90
2018-05-16T06:13:00.211Z,99.90
2018-05-16T06:15:30.020Z,99.90
2018-05-16T06:18:00.316Z,99.90
2018-05-16T06:20:30.144Z,99.90
2018-05-16T06:23:00.480Z,99.90
2018-05-16T06:25:30.260Z,99.90
2018-05-16T06:28:00.023Z,99.90
2018-05-16T06:30:30.579Z,99.90
2018-05-16T06:33:01.109Z,99.90
2018-05-16T06:35:30.894Z,99.90
2018-05-16T06:38:01.442Z,99.90
2018-05-16T06:40:31.289Z,99.90
2018-05-16T06:43:01.055Z,99.90
2018-05-16T06:45:31.625Z,99.90
2018-05-16T06:48:01.130Z,99.90
2018-05-16T06:50:30.667Z,99.90
2018-05-16T06:53:00.437Z,99.90
2018-05-16T06:55:30.228Z,99.90
2018-05-16T06:57:59.739Z,99.90
2018-05-16T07:00:29.602Z,99.90
2018-05-16T07:02:59.161Z,99.90
2018-05-16T07:05:28.680Z,99.90
2018-05-16T07:07:58.249Z,99.90
2018-05-16T07:10:28.503Z,99.90
2018-05-16T07:12:58.213Z,99.90
2018-05-16T07:15:27.719Z,99.90
2018-05-16T07:17:57.424Z,99.90
2018-05-16T07:20:26.957Z,99.90
2018-05-16T07:22:56.603Z,99.90
2018-05-16T07:25:26.230Z,99.90
2018-05-16T07:27:55.927Z,99.90
2018-05-16T07:30:26.239Z,99.90
2018-05-16T07:32:55.731Z,99.90
2018-05-16T07:35:25.289Z,99.90
2018-05-16T07:37:54.770Z,99.90
2018-05-16T07:40:25.078Z,99.90
2018-05-16T07:42:54.226Z,99.90
2018-05-16T07:45:23.782Z,99.90
2018-05-16T07:47:53.289Z,99.90
2018-05-16T07:50:22.796Z,99.90
2018-05-16T07:52:52.280Z,99.90
2018-05-16T07:55:21.776Z,99.90
2018-05-16T07:57:51.338Z,99.90
2018-05-16T08:00:21.640Z,99.90
2018-05-16T08:02:51.155Z,99.90
2018-05-16T08:05:21.444Z,99.90
2018-05-16T08:07:50.993Z,99.90
2018-05-16T08:10:21.267Z,99.90
2018-05-16T08:12:50.793Z,99.90
2018-05-16T08:15:20.284Z,99.90
2018-05-16T08:17:49.806Z,99.90
2018-05-16T08:20:19.313Z,99.90
2018-05-16T08:22:48.856Z,99.90
2018-05-16T08:25:19.143Z,99.90
2018-05-16T08:27:48.738Z,99.90
2018-05-16T08:30:18.301Z,99.90
2018-05-16T08:32:47.898Z,99.90
2018-05-16T08:35:17.450Z,99.90
2018-05-16T08:37:47.060Z,99.90
2018-05-16T08:40:16.647Z,99.90
2018-05-16T08:42:46.193Z,99.90
2018-05-16T08:45:15.714Z,99.90
2018-05-16T08:47:46.721Z,99.90
2018-05-16T08:50:16.279Z,99.90
2018-05-16T08:52:46.538Z,99.90
2018-05-16T08:55:16.072Z,99.90
2018-05-16T08:57:45.605Z,99.90
2018-05-16T09:00:15.942Z,99.90
2018-05-16T09:02:45.544Z,99.90
2018-05-16T09:05:16.342Z,99.90
2018-05-16T09:07:45.937Z,99.90
2018-05-16T09:10:15.687Z,99.90
2018-05-16T09:12:45.207Z,99.90
2018-05-16T09:15:15.495Z,99.90
2018-05-16T09:17:44.993Z,99.90
2018-05-16T09:20:14.490Z,99.90
2018-05-16T09:22:43.995Z,99.90
2018-05-16T09:25:13.493Z,99.90
2018-05-16T09:27:43.210Z,99.90
2018-05-16T09:30:12.728Z,99.90
2018-05-16T09:32:42.268Z,99.90
2018-05-16T09:35:11.501Z,99.90
2018-05-16T09:37:41.020Z,99.90
2018-05-16T09:40:10.851Z,99.90
2018-05-16T09:42:40.456Z,99.90
2018-05-16T09:45:10.005Z,99.90
2018-05-16T09:47:39.532Z,99.90
2018-05-16T09:50:09.082Z,99.90
2018-05-16T09:52:38.329Z,99.90
2018-05-16T09:55:08.628Z,99.90
2018-05-16T09:57:38.175Z,99.90
2018-05-16T10:00:07.081Z,99.90
2018-05-16T10:02:36.709Z,99.90
2018-05-16T10:05:07.230Z,97.40
2018-05-16T10:07:36.412Z,97.40
2018-05-16T10:10:05.902Z,98.50
2018-05-16T10:12:35.490Z,94.70
2018-05-16T10:15:05.821Z,93.20
2018-05-16T10:17:35.385Z,93.30
2018-05-16T10:20:04.187Z,91.40
2018-05-16T10:22:33.722Z,88.20
2018-05-16T10:25:03.322Z,78.30
2018-05-16T10:27:32.823Z,78.20
2018-05-16T10:30:02.309Z,73.60
2018-05-16T10:32:31.892Z,75.00
2018-05-16T10:35:01.375Z,76.90
2018-05-16T10:37:30.904Z,80.10
2018-05-16T10:40:00.445Z,83.40
2018-05-16T10:42:30.684Z,78.10
2018-05-16T10:45:00.351Z,78.00
2018-05-16T10:47:29.829Z,76.80
2018-05-16T10:49:59.335Z,71.30
2018-05-16T10:52:28.866Z,67.70
2018-05-16T10:54:58.357Z,66.90
2018-05-16T10:57:27.915Z,66.00
2018-05-16T10:59:57.628Z,70.20
2018-05-16T11:02:27.872Z,69.50
2018-05-16T11:04:57.429Z,69.50
2018-05-16T11:07:26.915Z,64.60
2018-05-16T11:09:56.421Z,62.90
2018-05-16T11:12:25.957Z,64.00
2018-05-16T11:14:56.232Z,65.30
2018-05-16T11:17:25.781Z,65.90
2018-05-16T11:19:55.293Z,63.90
2018-05-16T11:22:24.949Z,62.40
2018-05-16T11:24:54.165Z,57.70
2018-05-16T11:27:23.651Z,55.80
2018-05-16T11:29:53.456Z,54.30
2018-05-16T11:32:22.680Z,53.70
2018-05-16T11:34:52.244Z,52.40
2018-05-16T11:37:22.539Z,50.10
2018-05-16T11:39:53.765Z,48.10
2018-05-16T11:42:23.359Z,47.50
2018-05-16T11:44:53.779Z,46.00
2018-05-16T11:47:23.330Z,46.00
2018-05-16T11:49:52.849Z,47.30
2018-05-16T11:52:22.511Z,46.20
2018-05-16T11:54:52.008Z,46.70
2018-05-16T11:57:21.560Z,46.70
2018-05-16T11:59:51.064Z,46.90
2018-05-16T12:02:20.568Z,47.60
2018-05-16T12:04:50.099Z,48.80
2018-05-16T12:07:20.374Z,49.40
2018-05-16T12:09:49.897Z,49.40
2018-05-16T12:12:19.448Z,49.80
2018-05-16T12:14:48.984Z,50.90
2018-05-16T12:17:18.675Z,52.40
2018-05-16T12:19:48.220Z,49.60
2018-05-16T12:22:17.791Z,47.00
2018-05-16T12:24:47.259Z,46.40
2018-05-16T12:27:17.569Z,45.30
2018-05-16T12:29:47.126Z,45.20
2018-05-16T12:32:16.598Z,42.50
2018-05-16T12:34:46.851Z,41.00
2018-05-16T12:37:16.379Z,40.90
2018-05-16T12:39:45.879Z,40.40
2018-05-16T12:42:15.069Z,41.30
2018-05-16T12:44:44.580Z,43.00
2018-05-16T12:47:14.766Z,45.00
2018-05-16T12:49:45.049Z,48.70
2018-05-16T12:52:14.523Z,48.70
2018-05-16T12:54:44.048Z,48.90
2018-05-16T12:57:13.538Z,45.10
2018-05-16T12:59:43.061Z,44.30
2018-05-16T13:02:12.926Z,45.00
2018-05-16T13:04:42.402Z,46.20
2018-05-16T13:07:11.896Z,44.90
2018-05-16T13:09:41.956Z,41.50
2018-05-16T13:12:12.516Z,39.20
2018-05-16T13:14:42.056Z,39.20
2018-05-16T13:17:11.592Z,38.70
2018-05-16T13:19:42.093Z,39.70
2018-05-16T13:22:11.803Z,39.60
2018-05-16T13:24:41.120Z,40.20
2018-05-16T13:27:10.689Z,38.50
2018-05-16T13:29:39.957Z,37.40
2018-05-16T13:32:10.270Z,36.80
2018-05-16T13:34:40.539Z,36.70
2018-05-16T13:37:10.098Z,36.70
2018-05-16T13:39:40.405Z,36.90
2018-05-16T13:42:09.924Z,36.80
2018-05-16T13:44:40.218Z,35.40
2018-05-16T13:47:09.784Z,35.40
2018-05-16T13:49:38.967Z,36.10
2018-05-16T13:52:09.268Z,38.90
2018-05-16T13:54:38.778Z,38.90
2018-05-16T13:57:08.106Z,37.20
2018-05-16T13:59:37.607Z,36.90
2018-05-16T14:02:06.797Z,38.40
2018-05-16T14:04:36.420Z,40.70
2018-05-16T14:07:05.949Z,39.70
2018-05-16T14:09:35.466Z,39.80
2018-05-16T14:12:04.599Z,41.60
2018-05-16T14:14:34.079Z,43.20
2018-05-16T14:17:03.681Z,43.90
2018-05-16T14:19:34.009Z,46.90
2018-05-16T14:22:03.550Z,46.90
2018-05-16T14:24:33.051Z,48.80
2018-05-16T14:27:02.519Z,48.70
2018-05-16T14:29:32.045Z,49.50
2018-05-16T14:32:01.597Z,50.70
2018-05-16T14:34:31.857Z,49.20
2018-05-16T14:37:01.403Z,49.10
2018-05-16T14:39:30.908Z,49.20
2018-05-16T14:42:00.977Z,49.50
2018-05-16T14:44:31.475Z,51.20
2018-05-16T14:47:00.980Z,51.00
2018-05-16T14:49:30.527Z,52.80
2018-05-16T14:52:00.086Z,53.30
2018-05-16T14:54:31.281Z,53.50
2018-05-16T14:57:00.804Z,53.90
2018-05-16T14:59:30.313Z,54.50
2018-05-16T15:01:59.820Z,55.70
2018-05-16T15:04:29.336Z,57.90
2018-05-16T15:06:58.870Z,58.10
2018-05-16T15:09:28.390Z,58.60
2018-05-16T15:11:58.670Z,58.20
2018-05-16T15:14:28.262Z,58.00
2018-05-16T15:19:33.737Z,59.80
2018-05-16T15:22:02.909Z,59.70
2018-05-16T15:24:32.397Z,60.00
2018-05-16T15:27:02.100Z,58.90
2018-05-16T15:29:32.394Z,62.30
2018-05-16T15:32:01.945Z,62.40
2018-05-16T15:34:31.477Z,65.20
2018-05-16T15:37:01.076Z,64.40
2018-05-16T15:39:30.725Z,63.90
2018-05-16T15:42:00.268Z,61.10
2018-05-16T15:44:29.785Z,61.60
2018-05-16T15:46:59.421Z,62.40
2018-05-16T15:49:28.932Z,63.00
2018-05-16T15:51:58.440Z,63.30
2018-05-16T15:54:27.970Z,62.70
2018-05-16T15:56:58.223Z,62.30
2018-05-16T15:59:27.757Z,62.30
2018-05-16T16:01:57.261Z,63.20
2018-05-16T16:04:26.776Z,65.40
2018-05-16T16:06:56.296Z,67.70
2018-05-16T16:09:25.470Z,68.70
2018-05-16T16:11:55.047Z,71.10
2018-05-16T16:14:24.573Z,74.90
2018-05-16T16:16:54.205Z,81.10
2018-05-16T16:19:23.790Z,88.20
2018-05-16T16:21:53.296Z,95.80
2018-05-16T16:24:22.817Z,99.90
2018-05-16T16:26:52.376Z,99.90
2018-05-16T16:29:22.687Z,99.90
2018-05-16T16:31:52.988Z,99.90
2018-05-16T16:34:22.642Z,99.90
2018-05-16T16:36:52.234Z,99.90
2018-05-16T16:39:21.742Z,99.90
2018-05-16T16:41:51.253Z,99.90
2018-05-16T16:44:21.549Z,99.90
2018-05-16T16:46:50.763Z,99.90
2018-05-16T16:49:20.315Z,99.90
2018-05-16T16:51:49.887Z,99.90
2018-05-16T16:54:19.462Z,99.90
2018-05-16T16:56:48.945Z,99.90
2018-05-16T16:59:18.436Z,99.90
2018-05-16T17:01:47.966Z,99.90
2018-05-16T17:04:17.472Z,99.90
2018-05-16T17:06:46.974Z,99.90
2018-05-16T17:09:16.531Z,99.90
2018-05-16T17:11:46.805Z,99.90
2018-05-16T17:14:16.429Z,99.90
2018-05-16T17:16:45.973Z,99.90
2018-05-16T17:19:16.279Z,99.90
2018-05-16T17:21:45.968Z,99.90
2018-05-16T17:24:15.493Z,99.90
2018-05-16T17:26:45.894Z,99.90
2018-05-16T17:29:15.510Z,99.90
2018-05-16T17:31:45.121Z,99.90
2018-05-16T17:34:14.673Z,99.90
2018-05-16T17:36:44.147Z,99.90
2018-05-16T17:39:13.690Z,99.90
2018-05-16T17:41:43.205Z,99.90
2018-05-16T17:44:12.719Z,99.90
2018-05-16T17:46:42.270Z,99.90
2018-05-16T17:49:11.440Z,99.90
2018-05-16T17:51:40.920Z,99.90
2018-05-16T17:54:10.429Z,99.90
2018-05-16T17:56:39.691Z,99.90
2018-05-16T17:59:09.285Z,99.90
2018-05-16T18:01:38.829Z,99.90
2018-05-16T18:04:09.080Z,99.90
2018-05-16T18:06:38.604Z,99.90
2018-05-16T18:09:08.119Z,99.90
2018-05-16T18:11:37.651Z,99.90
2018-05-16T18:14:19.070Z,99.90
2018-05-16T18:17:12.646Z,99.90
2018-05-16T18:19:41.808Z,99.90
2018-05-16T18:22:12.123Z,99.90
2018-05-16T18:24:41.629Z,99.90
2018-05-16T18:27:11.901Z,99.90
2018-05-16T18:29:42.016Z,99.90
2018-05-16T18:32:11.616Z,99.90
2018-05-16T18:34:41.152Z,99.90
2018-05-16T18:37:10.711Z,99.90
2018-05-16T18:39:40.308Z,99.90
2018-05-16T18:42:10.636Z,99.90
2018-05-16T18:44:40.145Z,99.90
2018-05-16T18:47:10.624Z,99.90
2018-05-16T18:49:40.139Z,99.90
2018-05-16T18:52:09.644Z,99.90
2018-05-16T18:54:39.181Z,99.90
2018-05-16T18:57:09.438Z,99.90
2018-05-16T18:59:39.264Z,99.90
2018-05-16T19:02:08.809Z,99.90
2018-05-16T19:04:38.358Z,99.90
2018-05-16T19:07:07.867Z,99.90
2018-05-16T19:09:37.426Z,99.90
2018-05-16T19:12:06.944Z,99.90
2018-05-16T19:14:37.339Z,99.90
2018-05-16T19:17:07.811Z,99.90
2018-05-16T19:19:37.032Z,99.90
2018-05-16T19:22:06.576Z,99.90
2018-05-16T19:24:35.830Z,99.90
2018-05-16T19:27:05.071Z,99.90
2018-05-16T19:29:34.695Z,99.90
2018-05-16T19:32:03.914Z,99.90
2018-05-16T19:34:34.208Z,99.90
2018-05-16T19:37:03.760Z,99.90
2018-05-16T19:39:34.019Z,99.90
2018-05-16T19:42:03.536Z,99.90
2018-05-16T19:44:33.092Z,99.90
2018-05-16T19:47:03.339Z,99.90
2018-05-16T19:49:32.873Z,99.90
2018-05-16T19:52:02.354Z,99.90
2018-05-16T19:54:31.901Z,99.90
2018-05-16T19:57:02.259Z,99.90
2018-05-16T19:59:32.512Z,99.90
2018-05-16T20:02:02.111Z,99.90
2018-05-16T20:04:31.592Z,99.90
2018-05-16T20:07:01.875Z,99.90
2018-05-16T20:09:31.363Z,99.90
2018-05-16T20:12:00.921Z,99.90
2018-05-16T20:14:30.428Z,99.90
2018-05-16T20:17:00.817Z,99.90
2018-05-16T20:19:30.310Z,99.90
2018-05-16T20:22:00.055Z,99.90
2018-05-16T20:24:30.412Z,99.90
2018-05-16T20:27:00.736Z,99.90
2018-05-16T20:29:31.136Z,99.90
2018-05-16T20:32:00.723Z,99.90
2018-05-16T20:34:30.261Z,99.90
2018-05-16T20:36:59.732Z,99.90
2018-05-16T20:39:29.283Z,99.90
2018-05-16T20:41:59.553Z,99.90
2018-05-16T20:44:29.090Z,99.90
2018-05-16T20:46:58.662Z,99.90
2018-05-16T20:49:28.153Z,99.90
2018-05-16T20:51:57.651Z,99.90
2018-05-16T20:54:27.173Z,99.90
2018-05-16T20:56:56.481Z,99.90
2018-05-16T20:59:25.990Z,99.90
2018-05-16T21:01:55.546Z,99.90
2018-05-16T21:04:25.824Z,99.90
2018-05-16T21:06:55.343Z,99.90
2018-05-16T21:09:24.868Z,99.90
2018-05-16T21:11:55.196Z,99.90
2018-05-16T21:14:24.713Z,99.90
2018-05-16T21:16:54.988Z,99.90
2018-05-16T21:19:24.472Z,99.90
2018-05-16T21:21:53.971Z,99.90
2018-05-16T21:24:23.581Z,99.90
2018-05-16T21:26:53.125Z,99.90
2018-05-16T21:29:22.635Z,99.90
2018-05-16T21:31:52.139Z,99.90
2018-05-16T21:34:21.630Z,99.90
2018-05-16T21:36:52.057Z,99.90
2018-05-16T21:39:21.624Z,99.90
2018-05-16T21:41:51.209Z,99.90
2018-05-16T21:44:21.483Z,99.90
2018-05-16T21:46:51.016Z,99.90
2018-05-16T21:49:20.570Z,99.90
2018-05-16T21:51:50.096Z,99.90
2018-05-16T21:54:19.618Z,99.90
2018-05-16T21:56:49.240Z,99.90
2018-05-16T21:59:18.851Z,99.90
2018-05-16T22:01:48.348Z,99.90
2018-05-16T22:04:17.904Z,99.90
2018-05-16T22:06:47.892Z,99.90
2018-05-16T22:09:17.866Z,99.90
2018-05-16T22:11:48.265Z,99.90
2018-05-16T22:14:17.816Z,99.90
2018-05-16T22:16:47.341Z,99.90
2018-05-16T22:19:16.852Z,99.90
2018-05-16T22:21:46.404Z,99.90
2018-05-16T22:24:15.905Z,99.90
2018-05-16T22:26:45.419Z,99.90
2018-05-16T22:29:14.940Z,99.90
2018-05-16T22:31:49.906Z,99.90
2018-05-16T22:34:24.961Z,99.90
2018-05-16T22:37:00.650Z,99.90
2018-05-16T22:39:35.546Z,99.90
2018-05-16T22:42:11.152Z,99.90
2018-05-16T22:44:46.027Z,99.90
2018-05-16T22:47:15.530Z,99.90
2018-05-16T22:49:44.747Z,99.90
2018-05-16T22:52:14.304Z,99.90
2018-05-16T22:54:43.787Z,99.90
2018-05-16T22:57:13.287Z,99.90
2018-05-16T22:59:42.794Z,99.90
2018-05-16T23:02:12.340Z,99.90
2018-05-16T23:04:41.844Z,99.90
2018-05-16T23:07:11.384Z,99.90
2018-05-16T23:09:41.660Z,99.90
2018-05-16T23:12:11.196Z,99.90
2018-05-16T23:14:40.681Z,99.90
2018-05-16T23:17:10.202Z,99.90
2018-05-16T23:19:39.687Z,99.90
2018-05-16T23:22:08.540Z,99.90
2018-05-16T23:24:37.791Z,99.90
2018-05-16T23:27:07.362Z,99.90
2018-05-16T23:29:38.029Z,99.90
2018-05-16T23:32:07.853Z,99.90
2018-05-16T23:34:37.542Z,99.90
2018-05-16T23:37:07.076Z,99.90
2018-05-16T23:39:36.563Z,99.90
2018-05-16T23:42:06.408Z,99.90
2018-05-16T23:44:36.668Z,99.90
2018-05-16T23:47:06.227Z,99.90
2018-05-16T23:49:36.539Z,99.90
2018-05-16T23:52:06.062Z,99.90
2018-05-16T23:54:36.322Z,99.90
2018-05-16T23:57:05.812Z,99.90
2018-05-16T23:59:36.388Z,99.90
